Time;durP1;ratioP1;P1;durP2;ratioP2;P2;SDS_P1;SDS_P2;PMS_P1;PMS_P2;Temp;Humidity;BMP_temperature;BMP_pressure;BME280_temperature;BME280_humidity;BME280_pressure;Samples;Min_cycle;Max_cycle;Signal;HPM_P1;HPM_P2
2022/01/03 00:00:10;;;;;;;16.50;2.42;;;10.60;99.90;;;;;;5004842;28;20388;-78
2022/01/03 00:02:38;;;;;;;20.23;1.80;;;10.50;99.90;;;;;;5003184;28;20037;-78
2022/01/03 00:05:06;;;;;;;22.58;1.92;;;10.60;99.90;;;;;;5037330;28;20013;-78
2022/01/03 00:07:36;;;;;;;20.10;2.35;;;10.50;99.90;;;;;;4971205;28;20057;-82
2022/01/03 00:10:04;;;;;;;19.70;1.92;;;10.50;99.90;;;;;;4991155;28;20029;-82
2022/01/03 00:12:30;;;;;;;20.65;2.30;;;10.50;99.90;;;;;;5019643;28;20038;-83
2022/01/03 00:14:57;;;;;;;19.23;2.40;;;10.50;99.90;;;;;;5005164;28;20048;-78
2022/01/03 00:17:23;;;;;;;28.90;3.20;;;10.40;99.90;;;;;;5020127;28;20029;-78
2022/01/03 00:19:50;;;;;;;23.13;2.13;;;10.40;99.90;;;;;;5019233;28;20416;-78
2022/01/03 00:22:23;;;;;;;17.70;2.33;;;10.40;99.90;;;;;;5020165;28;20033;-77
2022/01/03 00:25:05;;;;;;;21.27;2.00;;;10.40;99.90;;;;;;5005445;28;20021;-78
2022/01/03 00:27:44;;;;;;;15.13;1.80;;;10.50;99.90;;;;;;5002527;28;20033;-78
2022/01/03 00:30:12;;;;;;;17.20;2.45;;;10.50;99.90;;;;;;5000003;28;20017;-77
2022/01/03 00:32:42;;;;;;;22.75;2.55;;;10.50;99.90;;;;;;4988363;28;20036;-77
2022/01/03 00:35:13;;;;;;;22.27;2.10;;;10.50;99.90;;;;;;4992624;28;20037;-78
2022/01/03 00:37:44;;;;;;;20.70;2.65;;;10.50;99.90;;;;;;5019243;28;20041;-77
2022/01/03 00:40:11;;;;;;;21.38;2.85;;;10.60;99.90;;;;;;5000357;28;20053;-77
2022/01/03 00:42:38;;;;;;;33.38;4.40;;;10.60;99.90;;;;;;4983589;28;20030;-78
2022/01/03 00:45:05;;;;;;;17.88;2.20;;;10.60;99.90;;;;;;5003079;28;20021;-78
2022/01/03 00:47:33;;;;;;;29.00;3.70;;;10.60;99.90;;;;;;5001248;28;20029;-78
2022/01/03 00:50:12;;;;;;;26.00;2.72;;;10.60;99.90;;;;;;5001017;28;20044;-77
2022/01/03 00:52:39;;;;;;;25.83;2.80;;;10.60;99.90;;;;;;5001320;28;20040;-82
2022/01/03 00:55:06;;;;;;;30.70;3.40;;;10.60;99.90;;;;;;4973253;28;20033;-78
2022/01/03 00:57:55;;;;;;;25.52;2.85;;;10.60;99.90;;;;;;5018614;28;20034;-77
2022/01/03 01:00:21;;;;;;;22.80;2.95;;;10.60;99.90;;;;;;4986341;28;20037;-77
2022/01/03 01:03:00;;;;;;;37.00;3.80;;;10.60;99.90;;;;;;5015101;28;20048;-78
2022/01/03 01:05:28;;;;;;;29.38;2.75;;;10.60;99.90;;;;;;5000799;28;20029;-77
2022/01/03 01:07:56;;;;;;;26.77;2.90;;;10.60;99.90;;;;;;4988550;28;20058;-77
2022/01/03 01:10:33;;;;;;;35.58;4.22;;;10.60;99.90;;;;;;5019887;28;20048;-77
2022/01/03 01:13:02;;;;;;;29.02;2.90;;;10.60;99.90;;;;;;5000614;28;20032;-77
2022/01/03 01:15:29;;;;;;;37.40;4.38;;;10.60;99.90;;;;;;5029946;28;20032;-77
2022/01/03 01:17:57;;;;;;;27.83;2.83;;;10.60;99.90;;;;;;5000857;28;20377;-77
2022/01/03 01:20:25;;;;;;;17.90;3.30;;;10.60;99.90;;;;;;5031394;28;20045;-77
2022/01/03 01:22:54;;;;;;;32.20;3.58;;;10.60;99.90;;;;;;4970808;28;20045;-77
2022/01/03 01:28:08;;;;;;;26.23;3.15;;;10.60;99.90;;;;;;4988840;28;20042;-77
2022/01/03 01:30:36;;;;;;;30.52;4.03;;;10.60;99.90;;;;;;4999884;28;20054;-77
2022/01/03 01:33:09;;;;;;;28.50;3.22;;;10.60;99.90;;;;;;5018589;28;20021;-77
2022/01/03 01:35:50;;;;;;;28.77;3.40;;;10.60;99.90;;;;;;5020115;28;20033;-81
2022/01/03 01:38:21;;;;;;;27.33;3.47;;;10.60;99.90;;;;;;5004130;28;20030;-81
2022/01/03 01:40:59;;;;;;;23.73;3.15;;;10.60;99.90;;;;;;5017203;28;20044;-81
2022/01/03 01:43:42;;;;;;;26.75;2.72;;;10.60;99.90;;;;;;5003418;28;20036;-82
2022/01/03 01:46:14;;;;;;;27.42;3.25;;;10.60;99.90;;;;;;5020164;28;20046;-77
2022/01/03 01:48:48;;;;;;;22.75;2.90;;;10.60;99.90;;;;;;5004127;28;20025;-77
2022/01/03 01:51:18;;;;;;;24.60;3.05;;;10.60;99.90;;;;;;4983437;28;20034;-77
2022/01/03 01:53:53;;;;;;;29.77;2.88;;;10.60;99.90;;;;;;4985042;28;20037;-77
2022/01/03 01:56:27;;;;;;;26.38;3.80;;;10.50;99.90;;;;;;4988195;28;20021;-77
2022/01/03 01:59:10;;;;;;;25.83;2.50;;;10.50;99.90;;;;;;4988105;28;20029;-78
2022/01/03 02:02:06;;;;;;;23.52;1.98;;;10.50;99.90;;;;;;5012790;28;20036;-77
2022/01/03 02:04:57;;;;;;;30.13;3.55;;;10.50;99.90;;;;;;4987005;28;20051;-77
2022/01/03 02:07:28;;;;;;;31.67;4.00;;;10.50;99.90;;;;;;4998657;28;20052;-78
2022/01/03 02:10:15;;;;;;;28.60;3.80;;;10.50;99.90;;;;;;5004509;28;22959;-77
2022/01/03 02:12:48;;;;;;;31.65;3.65;;;10.50;99.90;;;;;;4986920;28;20021;-78
2022/01/03 02:15:19;;;;;;;30.48;2.78;;;10.50;99.90;;;;;;5029763;28;20038;-77
2022/01/03 02:17:49;;;;;;;26.88;3.20;;;10.50;99.90;;;;;;5004639;28;20040;-77
2022/01/03 02:20:23;;;;;;;26.85;2.92;;;10.50;99.90;;;;;;4998024;28;20048;-78
2022/01/03 02:22:54;;;;;;;28.60;3.47;;;10.50;99.90;;;;;;4996723;28;20643;-78
2022/01/03 02:25:26;;;;;;;23.77;3.25;;;10.50;99.90;;;;;;4988336;28;20022;-77
2022/01/03 02:27:54;;;;;;;37.38;3.22;;;10.60;99.90;;;;;;5017044;28;20489;-78
2022/01/03 02:30:32;;;;;;;34.55;4.47;;;10.60;99.90;;;;;;4985669;28;20040;-78
2022/01/03 02:33:00;;;;;;;23.75;2.75;;;10.60;99.90;;;;;;5001978;28;20045;-78
2022/01/03 02:35:34;;;;;;;27.02;4.35;;;10.60;99.90;;;;;;5012601;28;20057;-78
2022/01/03 02:38:00;;;;;;;29.42;4.07;;;10.60;99.90;;;;;;4990651;28;20029;-78
2022/01/03 02:40:27;;;;;;;29.38;4.10;;;10.60;99.90;;;;;;5001019;28;20053;-78
2022/01/03 02:42:55;;;;;;;28.73;3.33;;;10.60;99.90;;;;;;5013256;28;20049;-76
2022/01/03 02:45:26;;;;;;;28.88;3.80;;;10.50;99.90;;;;;;5000513;28;20037;-76
2022/01/03 02:47:56;;;;;;;24.05;2.65;;;10.50;99.90;;;;;;4966903;28;20406;-76
2022/01/03 02:50:25;;;;;;;27.27;3.15;;;10.50;99.90;;;;;;4998749;28;20024;-76
2022/01/03 02:52:53;;;;;;;37.55;4.15;;;10.50;99.90;;;;;;5017315;28;20052;-76
2022/01/03 02:55:23;;;;;;;26.10;3.28;;;10.50;99.90;;;;;;5020353;28;20492;-76
2022/01/03 02:57:52;;;;;;;30.95;4.15;;;10.50;99.90;;;;;;5004263;28;20045;-76
2022/01/03 03:00:26;;;;;;;30.95;2.72;;;10.40;99.90;;;;;;5000697;28;20040;-76
2022/01/03 03:02:56;;;;;;;29.55;3.15;;;10.40;99.90;;;;;;5000350;28;20033;-77
2022/01/03 03:05:24;;;;;;;26.50;3.30;;;10.40;99.90;;;;;;4971484;28;20041;-77
2022/01/03 03:07:53;;;;;;;25.60;3.20;;;10.40;99.90;;;;;;4968676;28;20045;-77
2022/01/03 03:10:24;;;;;;;23.52;2.50;;;10.40;99.90;;;;;;4987853;28;20081;-77
2022/01/03 03:12:52;;;;;;;21.50;3.03;;;10.40;99.90;;;;;;4988449;28;20045;-77
2022/01/03 03:15:20;;;;;;;28.60;3.08;;;10.40;99.90;;;;;;5021640;28;20069;-77
2022/01/03 03:17:47;;;;;;;25.33;3.92;;;10.40;99.90;;;;;;5007734;28;20037;-77
2022/01/03 03:20:18;;;;;;;26.25;3.60;;;10.40;99.90;;;;;;5006328;28;20041;-77
2022/01/03 03:22:49;;;;;;;23.45;2.28;;;10.40;99.90;;;;;;5005755;28;20361;-82
2022/01/03 03:25:22;;;;;;;26.45;4.15;;;10.40;99.90;;;;;;4991829;28;20038;-82
2022/01/03 03:28:07;;;;;;;24.95;2.47;;;10.40;99.90;;;;;;5024059;28;20029;-82
2022/01/03 03:30:47;;;;;;;25.63;3.60;;;10.40;99.90;;;;;;5003536;28;20025;-82
2022/01/03 03:33:23;;;;;;;22.88;2.72;;;10.40;99.90;;;;;;4990934;28;20026;-82
2022/01/03 03:35:54;;;;;;;22.48;2.80;;;10.40;99.90;;;;;;5008844;28;20044;-82
2022/01/03 03:38:25;;;;;;;33.47;3.35;;;10.40;99.90;;;;;;4992194;28;20041;-82
2022/01/03 03:40:57;;;;;;;29.40;4.43;;;10.30;99.90;;;;;;5002371;28;20489;-82
2022/01/03 03:43:25;;;;;;;26.85;3.60;;;10.40;99.90;;;;;;5020766;28;20113;-82
2022/01/03 03:45:51;;;;;;;21.50;2.30;;;10.40;99.90;;;;;;5024934;28;20033;-82
2022/01/03 03:48:20;;;;;;;28.80;3.40;;;10.40;99.90;;;;;;4992805;28;20104;-82
2022/01/03 03:50:48;;;;;;;21.15;2.33;;;10.40;99.90;;;;;;5018455;28;20040;-83
2022/01/03 03:53:16;;;;;;;24.75;3.22;;;10.40;99.90;;;;;;5017228;28;20052;-83
2022/01/03 03:55:44;;;;;;;28.33;3.50;;;10.40;99.90;;;;;;5016561;28;20042;-82
2022/01/03 03:58:13;;;;;;;28.30;3.58;;;10.30;99.90;;;;;;4992349;28;20033;-82
2022/01/03 04:00:40;;;;;;;24.67;2.95;;;10.40;99.90;;;;;;5022947;28;20045;-82
2022/01/03 04:03:08;;;;;;;24.73;2.40;;;10.40;99.90;;;;;;5004303;28;21103;-82
2022/01/03 04:05:35;;;;;;;25.08;3.42;;;10.40;99.90;;;;;;5004918;28;20026;-82
2022/01/03 04:08:02;;;;;;;25.80;2.58;;;10.40;99.90;;;;;;5033505;28;20046;-82
2022/01/03 04:10:29;;;;;;;25.35;2.92;;;10.40;99.90;;;;;;4993195;28;20033;-82
2022/01/03 04:12:58;;;;;;;24.55;3.70;;;10.40;99.90;;;;;;5003460;28;20053;-82
2022/01/03 04:15:24;;;;;;;30.30;3.97;;;10.40;99.90;;;;;;5009172;28;20037;-82
2022/01/03 04:17:53;;;;;;;24.77;2.97;;;10.30;99.90;;;;;;5034025;28;20052;-83
2022/01/03 04:20:20;;;;;;;27.90;3.60;;;10.30;99.90;;;;;;5020961;28;20033;-82
2022/01/03 04:22:48;;;;;;;25.00;2.83;;;10.30;99.90;;;;;;5005516;28;20472;-83
2022/01/03 04:25:16;;;;;;;33.63;5.72;;;10.30;99.90;;;;;;5005932;28;20034;-83
2022/01/03 04:27:44;;;;;;;24.10;3.15;;;10.30;99.90;;;;;;5006244;28;20489;-83
2022/01/03 04:30:11;;;;;;;32.15;3.13;;;10.30;99.90;;;;;;5006729;28;20033;-83
2022/01/03 04:32:38;;;;;;;30.58;3.63;;;10.30;99.90;;;;;;5005330;28;20034;-83
2022/01/03 04:35:06;;;;;;;33.47;4.20;;;10.30;99.90;;;;;;5005827;28;20030;-82
2022/01/03 04:37:32;;;;;;;30.25;3.90;;;10.30;99.90;;;;;;5019362;28;20809;-82
2022/01/03 04:39:59;;;;;;;24.35;4.10;;;10.30;99.90;;;;;;5022805;28;20057;-83
2022/01/03 04:42:26;;;;;;;29.55;3.45;;;10.30;99.90;;;;;;4972507;28;20056;-82
2022/01/03 04:44:52;;;;;;;28.60;3.55;;;10.40;99.90;;;;;;5006982;28;20484;-82
2022/01/03 04:47:19;;;;;;;22.58;2.67;;;10.40;99.90;;;;;;5004993;28;20033;-82
2022/01/03 04:49:46;;;;;;;18.60;2.83;;;10.40;99.90;;;;;;5004729;28;20575;-82
2022/01/03 04:52:14;;;;;;;25.23;3.15;;;10.40;99.90;;;;;;4991858;28;20782;-82
2022/01/03 04:54:40;;;;;;;28.45;4.15;;;10.40;99.90;;;;;;4975235;28;20029;-82
2022/01/03 04:57:08;;;;;;;29.17;3.25;;;10.40;99.90;;;;;;5019618;28;20042;-82
2022/01/03 04:59:35;;;;;;;26.15;3.53;;;10.40;99.90;;;;;;5021096;28;20527;-82
2022/01/03 05:02:04;;;;;;;29.65;3.88;;;10.40;99.90;;;;;;4987254;28;20485;-77
2022/01/03 05:04:32;;;;;;;25.35;3.25;;;10.40;99.90;;;;;;5011039;28;20038;-77
2022/01/03 05:06:59;;;;;;;33.90;3.72;;;10.40;99.90;;;;;;5014495;28;20093;-78
2022/01/03 05:09:27;;;;;;;24.80;4.22;;;10.30;99.90;;;;;;5003602;28;20046;-77
2022/01/03 05:11:55;;;;;;;29.67;3.42;;;10.30;99.90;;;;;;4985101;28;20030;-77
2022/01/03 05:14:23;;;;;;;33.88;4.57;;;10.20;99.90;;;;;;5003317;28;20029;-83
2022/01/03 05:16:52;;;;;;;24.70;3.88;;;10.20;99.90;;;;;;5006031;28;20041;-83
2022/01/03 05:19:20;;;;;;;25.15;2.88;;;10.20;99.90;;;;;;4991337;28;20037;-82
2022/01/03 05:21:48;;;;;;;29.33;3.53;;;10.10;99.90;;;;;;5017239;28;20041;-82
2022/01/03 05:24:15;;;;;;;30.27;3.83;;;10.10;99.90;;;;;;4991002;28;20064;-77
2022/01/03 05:26:41;;;;;;;31.75;3.70;;;10.10;99.90;;;;;;5001584;28;20523;-83
2022/01/03 05:29:08;;;;;;;30.65;3.65;;;10.20;99.90;;;;;;5018859;28;20485;-81
2022/01/03 05:31:35;;;;;;;30.33;5.18;;;10.20;99.90;;;;;;4986830;28;20485;-82
2022/01/03 05:34:02;;;;;;;35.55;3.70;;;10.30;99.90;;;;;;4977056;28;20029;-84
2022/01/03 05:36:29;;;;;;;27.05;4.82;;;10.30;99.90;;;;;;5030887;28;20048;-83
2022/01/03 05:38:56;;;;;;;29.40;4.15;;;10.30;99.90;;;;;;5017587;28;20021;-84
2022/01/03 05:41:26;;;;;;;36.28;4.88;;;10.40;99.90;;;;;;5017158;28;20041;-82
2022/01/03 05:43:53;;;;;;;34.97;4.88;;;10.40;99.90;;;;;;4998074;28;20053;-84
2022/01/03 05:46:21;;;;;;;29.33;4.80;;;10.40;99.90;;;;;;5002188;28;20029;-81
2022/01/03 05:48:47;;;;;;;28.30;3.63;;;10.40;99.90;;;;;;4989286;28;20049;-84
2022/01/03 05:51:14;;;;;;;28.88;3.58;;;10.40;99.90;;;;;;5019248;28;20037;-84
2022/01/03 05:53:41;;;;;;;25.80;3.85;;;10.40;99.90;;;;;;5017144;28;20509;-77
2022/01/03 05:56:08;;;;;;;32.08;4.32;;;10.40;99.90;;;;;;5030856;28;20044;-77
2022/01/03 05:58:35;;;;;;;28.40;4.22;;;10.40;99.90;;;;;;5017765;28;20041;-77
2022/01/03 06:01:03;;;;;;;26.45;4.05;;;10.40;99.90;;;;;;5001663;28;20042;-76
2022/01/03 06:03:36;;;;;;;30.63;4.25;;;10.40;99.90;;;;;;4999538;28;20505;-77
2022/01/03 06:08:32;;;;;;;26.20;2.40;;;10.40;99.90;;;;;;5019415;28;20046;-80
2022/01/03 06:10:59;;;;;;;24.15;3.53;;;10.40;99.90;;;;;;4977084;28;20037;-80
2022/01/03 06:13:30;;;;;;;24.13;2.92;;;10.40;99.90;;;;;;4987204;28;20089;-80
2022/01/03 06:15:57;;;;;;;19.40;3.20;;;10.40;99.90;;;;;;4973099;28;20050;-81
2022/01/03 06:18:25;;;;;;;25.15;4.18;;;10.40;99.90;;;;;;5020177;28;20032;-81
2022/01/03 06:20:57;;;;;;;20.50;2.72;;;10.40;99.90;;;;;;4989957;28;20030;-81
2022/01/03 06:23:29;;;;;;;21.25;2.67;;;10.40;99.90;;;;;;4973592;28;20152;-78
2022/01/03 06:25:56;;;;;;;22.23;3.08;;;10.50;99.90;;;;;;5002322;28;20076;-78
2022/01/03 06:28:52;;;;;;;31.23;3.83;;;10.40;99.90;;;;;;5014801;28;20021;-80
2022/01/03 06:31:22;;;;;;;27.17;3.20;;;10.40;99.90;;;;;;5003390;28;20029;-78
2022/01/03 06:33:50;;;;;;;32.95;4.68;;;10.50;99.90;;;;;;5000683;28;20037;-81
2022/01/03 06:36:17;;;;;;;21.02;3.17;;;10.40;99.90;;;;;;4987613;28;20021;-80
2022/01/03 06:38:44;;;;;;;27.55;4.32;;;10.50;99.90;;;;;;4972434;28;20515;-79
2022/01/03 06:41:12;;;;;;;30.48;3.30;;;10.50;99.90;;;;;;4985347;28;20033;-78
2022/01/03 06:43:38;;;;;;;24.50;3.67;;;10.40;99.90;;;;;;4999701;28;20476;-80
2022/01/03 06:46:07;;;;;;;22.95;3.33;;;10.40;99.90;;;;;;5001662;28;20037;-81
2022/01/03 06:48:33;;;;;;;23.67;2.83;;;10.50;99.90;;;;;;5021478;28;20029;-81
2022/01/03 06:51:00;;;;;;;25.92;2.88;;;10.40;99.90;;;;;;5010434;28;20547;-81
2022/01/03 06:53:27;;;;;;;31.65;4.00;;;10.50;99.90;;;;;;5004007;28;20029;-81
2022/01/03 06:55:53;;;;;;;25.70;2.90;;;10.50;99.90;;;;;;4989914;28;20040;-81
2022/01/03 06:58:20;;;;;;;20.23;2.78;;;10.50;99.90;;;;;;4974894;28;20384;-81
2022/01/03 07:00:49;;;;;;;32.47;4.00;;;10.50;99.90;;;;;;5004130;28;20029;-82
2022/01/03 07:03:16;;;;;;;27.13;3.65;;;10.50;99.90;;;;;;5018360;28;20056;-81
2022/01/03 07:05:42;;;;;;;23.75;3.08;;;10.50;99.90;;;;;;5030297;28;20030;-80
2022/01/03 07:08:09;;;;;;;25.40;3.78;;;10.50;99.90;;;;;;4985021;28;20404;-82
2022/01/03 07:10:35;;;;;;;23.45;3.00;;;10.50;99.90;;;;;;4986476;28;20042;-81
2022/01/03 07:13:02;;;;;;;29.17;4.20;;;10.60;99.90;;;;;;4988898;28;20029;-82
2022/01/03 07:20:59;;;;;;;22.88;3.28;;;10.50;99.90;;;;;;5018574;28;20044;-81
2022/01/03 07:23:25;;;;;;;25.80;3.72;;;10.60;99.90;;;;;;4986231;28;20048;-78
2022/01/03 07:25:52;;;;;;;27.15;3.40;;;10.50;99.90;;;;;;5015126;28;20029;-78
2022/01/03 07:28:24;;;;;;;26.25;3.30;;;10.50;99.90;;;;;;4987422;28;20376;-79
2022/01/03 07:30:51;;;;;;;27.40;2.50;;;10.50;99.90;;;;;;5017608;28;20507;-77
2022/01/03 07:33:17;;;;;;;18.23;2.58;;;10.40;99.90;;;;;;5015968;28;20469;-78
2022/01/03 07:35:44;;;;;;;27.17;3.03;;;10.40;99.90;;;;;;5030438;28;20427;-78
2022/01/03 07:38:12;;;;;;;22.58;2.58;;;10.40;99.90;;;;;;5020756;28;20041;-78
2022/01/03 07:40:38;;;;;;;31.55;3.45;;;10.40;99.90;;;;;;5035714;28;20029;-78
2022/01/03 07:43:05;;;;;;;30.35;3.42;;;10.40;99.90;;;;;;4986727;28;20030;-79
2022/01/03 07:45:32;;;;;;;26.35;3.72;;;10.40;99.90;;;;;;4988014;28;20051;-78
2022/01/03 07:47:58;;;;;;;26.17;3.25;;;10.50;99.90;;;;;;5019956;28;20373;-78
2022/01/03 07:50:25;;;;;;;28.30;3.10;;;10.50;99.90;;;;;;5005934;28;20025;-78
2022/01/03 07:52:52;;;;;;;22.35;3.10;;;10.50;99.90;;;;;;5011538;28;20025;-78
2022/01/03 07:55:19;;;;;;;18.75;2.85;;;10.50;99.90;;;;;;5009735;28;20385;-78
2022/01/03 07:57:46;;;;;;;24.20;3.33;;;10.50;99.90;;;;;;5005982;28;20045;-78
2022/01/03 08:00:15;;;;;;;38.72;5.03;;;10.50;99.90;;;;;;5022260;28;20029;-77
2022/01/03 08:02:42;;;;;;;18.17;2.72;;;10.50;99.90;;;;;;4997079;28;20060;-78
2022/01/03 08:05:11;;;;;;;22.10;3.88;;;10.50;99.90;;;;;;5032411;28;20032;-78
2022/01/03 08:07:38;;;;;;;19.92;3.22;;;10.50;99.90;;;;;;5028692;28;20555;-78
2022/01/03 08:10:06;;;;;;;22.88;3.17;;;10.50;99.90;;;;;;5025309;28;20049;-78
2022/01/03 08:12:33;;;;;;;22.48;3.38;;;10.50;99.90;;;;;;5014496;28;20863;-78
2022/01/03 08:15:00;;;;;;;22.27;2.67;;;10.50;99.90;;;;;;5008708;28;20048;-80
2022/01/03 08:17:26;;;;;;;22.33;3.83;;;10.50;99.90;;;;;;5000840;28;20022;-80
2022/01/03 08:19:53;;;;;;;17.42;2.35;;;10.50;99.90;;;;;;5000892;28;20579;-80
2022/01/03 08:22:19;;;;;;;25.45;3.42;;;10.60;99.90;;;;;;4982518;28;20064;-80
2022/01/03 08:24:46;;;;;;;21.33;2.85;;;10.60;99.90;;;;;;4972814;28;20040;-80
2022/01/03 08:27:13;;;;;;;26.90;3.53;;;10.60;99.90;;;;;;4973844;28;20026;-80
2022/01/03 08:29:39;;;;;;;17.52;3.28;;;10.60;99.90;;;;;;5001787;28;20034;-80
2022/01/03 08:32:06;;;;;;;22.77;3.25;;;10.50;99.90;;;;;;4998439;28;20034;-81
2022/01/03 08:34:32;;;;;;;20.70;3.40;;;10.60;99.90;;;;;;5001786;28;20029;-79
2022/01/03 08:37:01;;;;;;;18.23;3.15;;;10.60;99.90;;;;;;5001411;28;20338;-79
2022/01/03 08:39:28;;;;;;;15.70;2.50;;;10.60;99.90;;;;;;4984370;28;20552;-82
2022/01/03 08:41:55;;;;;;;23.77;3.13;;;10.60;99.90;;;;;;4985550;28;20034;-83
2022/01/03 08:44:21;;;;;;;22.13;3.15;;;10.60;99.90;;;;;;5021615;28;20489;-80
2022/01/03 08:46:49;;;;;;;25.60;3.10;;;10.60;99.90;;;;;;5028421;28;20041;-81
2022/01/03 08:49:16;;;;;;;25.13;3.17;;;10.60;99.90;;;;;;4999789;28;20041;-80
2022/01/03 08:51:42;;;;;;;20.85;3.45;;;10.60;99.90;;;;;;4997629;28;20029;-80
2022/01/03 08:54:09;;;;;;;22.73;3.25;;;10.60;99.90;;;;;;5000112;28;20025;-80
2022/01/03 08:56:39;;;;;;;14.77;2.30;;;10.60;99.90;;;;;;5029898;28;20489;-78
2022/01/03 08:59:07;;;;;;;20.90;2.38;;;10.70;99.90;;;;;;4999690;28;20029;-78
2022/01/03 09:01:33;;;;;;;24.27;2.03;;;10.70;99.90;;;;;;4998681;28;20040;-78
2022/01/03 09:04:00;;;;;;;21.77;3.05;;;10.70;99.90;;;;;;4983463;28;20041;-78
2022/01/03 09:06:30;;;;;;;32.72;4.88;;;10.70;99.90;;;;;;5014529;28;20032;-78
2022/01/03 09:08:57;;;;;;;22.60;3.45;;;10.70;99.90;;;;;;4970277;28;20057;-78
2022/01/03 09:11:23;;;;;;;18.42;2.38;;;10.70;99.90;;;;;;4983007;28;20036;-78
2022/01/03 09:13:53;;;;;;;21.77;2.72;;;10.70;99.90;;;;;;4983248;28;20655;-78
2022/01/03 09:16:22;;;;;;;18.90;3.15;;;10.70;99.90;;;;;;5003162;28;21062;-78
2022/01/03 09:18:49;;;;;;;14.32;2.75;;;10.70;99.90;;;;;;5000539;28;20036;-78
2022/01/03 09:21:16;;;;;;;19.30;3.15;;;10.80;99.90;;;;;;4983453;28;20037;-78
2022/01/03 09:23:47;;;;;;;26.15;3.45;;;10.70;99.90;;;;;;5016972;28;20041;-80
2022/01/03 09:28:59;;;;;;;23.98;3.05;;;10.80;99.90;;;;;;5016253;28;20132;-80
2022/01/03 09:31:35;;;;;;;23.92;3.47;;;10.80;99.90;;;;;;5012173;28;20034;-80
2022/01/03 09:34:06;;;;;;;23.75;3.83;;;10.80;99.90;;;;;;4985985;28;20029;-81
2022/01/03 09:36:33;;;;;;;18.33;3.45;;;10.80;99.90;;;;;;5015168;28;20381;-81
2022/01/03 09:39:02;;;;;;;20.65;2.70;;;10.80;99.90;;;;;;4981028;28;20037;-80
2022/01/03 09:41:29;;;;;;;18.02;2.80;;;10.80;99.90;;;;;;4985774;28;20017;-78
2022/01/03 09:44:01;;;;;;;18.77;2.60;;;10.90;99.90;;;;;;4984897;28;20040;-78
2022/01/03 09:46:33;;;;;;;18.70;2.92;;;10.90;99.90;;;;;;5015967;28;20025;-78
2022/01/03 09:49:01;;;;;;;23.92;2.80;;;10.90;99.90;;;;;;5010297;28;20029;-81
2022/01/03 09:51:30;;;;;;;26.63;3.42;;;10.90;99.90;;;;;;5004087;28;20380;-81
2022/01/03 09:54:02;;;;;;;20.80;2.85;;;10.90;99.90;;;;;;5011969;28;20507;-81
2022/01/03 09:56:31;;;;;;;22.80;3.05;;;10.90;99.90;;;;;;5017277;28;20029;-80
2022/01/03 09:59:02;;;;;;;24.75;2.95;;;10.90;99.90;;;;;;5029641;28;20032;-80
2022/01/03 10:01:33;;;;;;;24.05;3.58;;;10.90;99.90;;;;;;4985648;28;20052;-80
2022/01/03 10:04:01;;;;;;;23.38;3.35;;;10.90;99.90;;;;;;4982789;28;20365;-80
2022/01/03 10:06:28;;;;;;;25.02;5.30;;;10.90;99.90;;;;;;4995628;28;20029;-79
2022/01/03 10:08:55;;;;;;;26.65;7.18;;;10.90;99.90;;;;;;5000351;28;20052;-79
2022/01/03 10:11:23;;;;;;;16.15;3.00;;;10.90;99.90;;;;;;5016413;28;20032;-78
2022/01/03 10:13:50;;;;;;;17.50;2.33;;;11.00;99.90;;;;;;4967684;28;20033;-78
2022/01/03 10:16:17;;;;;;;22.63;3.33;;;11.00;99.90;;;;;;4981877;28;20029;-77
2022/01/03 10:18:47;;;;;;;18.17;2.58;;;11.10;99.90;;;;;;4997738;28;20041;-78
2022/01/03 10:21:32;;;;;;;25.67;3.17;;;11.10;99.90;;;;;;5008659;28;20037;-81
2022/01/03 10:23:58;;;;;;;26.42;3.88;;;11.20;99.90;;;;;;5009450;28;20033;-81
2022/01/03 10:26:25;;;;;;;17.95;2.25;;;11.20;99.90;;;;;;5000143;28;20519;-77
2022/01/03 10:29:14;;;;;;;21.20;3.60;;;11.30;99.90;;;;;;4970106;28;20033;-78
2022/01/03 10:31:42;;;;;;;21.10;2.95;;;11.30;99.90;;;;;;4982185;28;20434;-78
2022/01/03 10:34:11;;;;;;;24.17;3.80;;;11.40;99.90;;;;;;4998194;28;20381;-78
2022/01/03 10:36:39;;;;;;;24.08;2.65;;;11.40;99.90;;;;;;5001552;28;20025;-81
2022/01/03 10:39:14;;;;;;;23.83;2.97;;;11.50;99.90;;;;;;4982476;28;20022;-81
2022/01/03 10:41:44;;;;;;;23.73;2.83;;;11.60;99.90;;;;;;5007578;28;20168;-81
2022/01/03 10:44:11;;;;;;;18.13;3.38;;;11.70;99.90;;;;;;4968121;28;20033;-78
2022/01/03 10:46:38;;;;;;;24.08;3.08;;;11.80;99.90;;;;;;5007961;28;20485;-80
2022/01/03 10:49:15;;;;;;;26.48;3.65;;;11.70;99.90;;;;;;4983898;28;20128;-80
2022/01/03 10:51:42;;;;;;;23.50;3.13;;;11.80;99.90;;;;;;5026534;28;20029;-81
2022/01/03 10:54:12;;;;;;;27.33;3.80;;;11.80;99.90;;;;;;4981172;28;20029;-80
2022/01/03 10:56:40;;;;;;;23.73;3.88;;;11.80;99.90;;;;;;5017863;28;20052;-81
2022/01/03 10:59:15;;;;;;;23.95;3.42;;;11.90;99.90;;;;;;4983852;28;20449;-82
2022/01/03 11:01:47;;;;;;;23.98;2.83;;;12.00;99.90;;;;;;4977561;28;20037;-80
2022/01/03 11:05:03;;;;;;;25.27;3.38;;;12.10;99.90;;;;;;4982416;28;20508;-80
2022/01/03 11:13:08;;;;;;;28.25;3.60;;;12.30;99.90;;;;;;4999844;28;20045;-81
2022/01/03 11:15:41;;;;;;;29.17;4.28;;;12.30;99.90;;;;;;5010033;28;20029;-80
2022/01/03 11:18:21;;;;;;;28.65;3.33;;;12.30;99.90;;;;;;4995397;28;20400;-82
2022/01/03 11:21:01;;;;;;;26.83;3.80;;;12.20;99.90;;;;;;4998123;28;20036;-81
2022/01/03 11:23:28;;;;;;;20.98;2.53;;;12.20;99.90;;;;;;4995261;28;20042;-81
2022/01/03 11:25:54;;;;;;;22.48;3.40;;;12.10;99.90;;;;;;5012023;28;20036;-79
2022/01/03 11:28:25;;;;;;;19.17;2.55;;;12.10;99.90;;;;;;5017052;28;20032;-79
2022/01/03 11:30:57;;;;;;;22.38;2.70;;;12.10;99.90;;;;;;4997912;28;20370;-79
2022/01/03 11:33:25;;;;;;;20.67;3.28;;;12.10;99.90;;;;;;5015085;28;20026;-78
2022/01/03 11:35:52;;;;;;;23.75;3.67;;;12.10;99.90;;;;;;5011502;28;20029;-78
2022/01/03 11:38:21;;;;;;;21.50;2.95;;;12.10;99.90;;;;;;4987639;28;20029;-79
2022/01/03 11:40:48;;;;;;;25.35;3.00;;;12.10;99.90;;;;;;5000305;28;20025;-78
2022/01/03 11:43:15;;;;;;;19.73;2.83;;;12.10;99.90;;;;;;5020703;28;20038;-79
2022/01/03 11:45:42;;;;;;;21.75;2.92;;;12.10;99.90;;;;;;5001662;28;20041;-79
2022/01/03 11:48:10;;;;;;;29.17;3.33;;;12.10;99.90;;;;;;5031893;28;20025;-81
2022/01/03 11:50:38;;;;;;;28.55;3.85;;;12.00;99.90;;;;;;5001765;28;20025;-81
2022/01/03 11:53:07;;;;;;;24.67;3.50;;;12.00;99.90;;;;;;5026660;28;20040;-81
2022/01/03 11:55:35;;;;;;;19.50;3.63;;;12.00;99.90;;;;;;4994402;28;20046;-81
2022/01/03 12:03:39;;;;;;;22.85;3.20;;;11.90;99.90;;;;;;5000305;28;20036;-80
2022/01/03 12:06:08;;;;;;;25.92;3.60;;;11.80;99.90;;;;;;5012013;28;20468;-81
2022/01/03 12:08:38;;;;;;;27.15;3.28;;;11.80;99.90;;;;;;4981939;28;20033;-80
2022/01/03 12:11:31;;;;;;;21.30;3.38;;;11.70;99.90;;;;;;4986630;28;20049;-81
2022/01/03 12:14:05;;;;;;;27.35;3.45;;;11.60;99.90;;;;;;5007114;28;20034;-81
2022/01/03 12:16:53;;;;;;;24.00;2.85;;;11.70;99.90;;;;;;5003282;28;20045;-80
2022/01/03 12:19:35;;;;;;;25.35;3.38;;;11.60;99.90;;;;;;4974463;28;20060;-81
2022/01/03 12:22:11;;;;;;;25.77;4.10;;;11.60;99.90;;;;;;5000369;28;20032;-80
2022/01/03 12:24:47;;;;;;;26.98;3.55;;;11.70;99.90;;;;;;5016715;28;20060;-82
2022/01/03 12:27:14;;;;;;;23.15;2.78;;;11.70;99.90;;;;;;4990815;28;20033;-82
2022/01/03 12:32:29;;;;;;;24.42;3.55;;;11.80;99.90;;;;;;5031411;28;20357;-81
2022/01/03 12:35:17;;;;;;;19.65;3.30;;;11.90;99.90;;;;;;5017139;28;20822;-84
2022/01/03 12:37:47;;;;;;;26.55;3.95;;;11.90;99.90;;;;;;5000851;28;20033;-84
2022/01/03 12:40:24;;;;;;;20.50;2.40;;;11.90;99.90;;;;;;5017738;28;20279;-82
2022/01/03 12:42:56;;;;;;;20.80;3.10;;;11.90;99.90;;;;;;4998333;28;20030;-81
2022/01/03 12:45:28;;;;;;;13.73;1.80;;;11.90;99.90;;;;;;5015438;28;20033;-80
2022/01/03 12:48:10;;;;;;;15.88;2.60;;;11.90;99.90;;;;;;5016759;28;20280;-80
2022/01/03 12:50:52;;;;;;;22.88;2.88;;;11.90;99.90;;;;;;4998913;28;20696;-80
2022/01/03 12:53:28;;;;;;;18.27;3.53;;;11.90;99.90;;;;;;4998848;28;20021;-80
2022/01/03 12:56:00;;;;;;;24.23;3.33;;;11.90;99.90;;;;;;5013104;28;20037;-80
2022/01/03 12:58:27;;;;;;;15.52;3.10;;;11.90;99.90;;;;;;5046651;28;20033;-80
2022/01/03 13:00:53;;;;;;;15.95;2.40;;;11.90;99.90;;;;;;4985033;28;20564;-82
2022/01/03 13:03:25;;;;;;;14.70;1.92;;;11.90;99.90;;;;;;4981049;28;20041;-81
2022/01/03 13:06:11;;;;;;;19.23;2.25;;;11.90;99.90;;;;;;5012187;28;20045;-79
2022/01/03 13:08:59;;;;;;;18.10;1.55;;;11.80;99.90;;;;;;5018847;28;20048;-80
2022/01/03 13:11:32;;;;;;;12.93;1.73;;;11.70;99.90;;;;;;5019522;28;20045;-81
2022/01/03 13:14:09;;;;;;;11.07;1.60;;;11.70;99.90;;;;;;5021664;28;20030;-79
2022/01/03 13:16:37;;;;;;;11.93;1.67;;;11.60;99.90;;;;;;5007986;28;20039;-79